Flight Track Log - Related Links

Times and Time Zones

All times are in EDT time to prevent confusion due to time zone crossing. See the N942CE flight status page for this flight to view local times or setup timezone preferences in your user account.

Time Position Orientation Groundspeed Altitude Reporting Facility
EDT Latitude Longitude Course Direction KTS MPH feet Rate Location/Type
Sun 10:45:00 PM 38.9500 -77.5333 North 157 181 2,500  Level Potomac TRACON
Sun 10:46:00 PM 38.9667 -77.5833 293° West 174 200 4,200 1,777 Climbing Potomac TRACON
Sun 10:47:59 PM 39.0694 -77.6156 346° North 182 209 7,800 1,733 Climbing Washington Center
Sun 10:49:00 PM 39.1236 -77.6142 North 182 209 9,400 1,613 Climbing Washington Center
Sun 10:49:58 PM 39.1819 -77.6158 359° North 189 217 11,000 800 Climbing Washington Center
Sun 10:50:00 PM 39.3101 -77.4500 North  Level FlightAware Approximate
Sun 10:51:00 PM 39.2508 -77.6097 North 219 252 11,000  Level Washington Center
Sun 10:51:58 PM 39.3217 -77.6064 North 238 274 12,700 1,932 Climbing Washington Center
Sun 10:52:58 PM 39.3778 -77.6186 350° North 226 260 14,800 1,623 Climbing Washington Center
Sun 10:54:00 PM 39.4186 -77.6708 315° West 202 232 16,000 550 Climbing Washington Center
Sun 10:54:58 PM 39.4761 -77.7264 323° Northwest 223 257 15,900  Descending Washington Center
Sun 10:55:58 PM 39.5375 -77.7900 321° Northwest 259 298 16,000  Climbing Washington Center
Sun 10:56:59 PM 39.5989 -77.8511 323° Northwest 278 320 15,900  Descending Washington Center
Sun 10:58:00 PM 39.6558 -77.9122 320° Northwest 278 320 16,000 48 Climbing Washington Center
Sun 10:59:04 PM 39.7119 -77.9653 324° Northwest 271 312 16,000  Level Cleveland Center
Sun 11:00:04 PM 39.7803 -78.0356 322° Northwest 271 312 16,000  Level Cleveland Center
Sun 11:01:04 PM 39.8378 -78.0931 322° Northwest 271 312 16,000  Level Cleveland Center
Sun 11:02:04 PM 39.8853 -78.1669 310° West 266 306 16,000 350 Level Cleveland Center
Sun 11:03:04 PM 39.9303 -78.2358 310° West 261 300 16,700 1,250 Climbing Cleveland Center
Sun 11:04:04 PM 39.9672 -78.2969 308° West 237 273 18,500 1,600 Climbing Cleveland Center
Sun 11:05:04 PM 40.0014 -78.3500 310° West 218 251 19,900 1,400 Climbing Cleveland Center
Sun 11:06:04 PM 40.0381 -78.4056 311° West 207 238 21,300 1,300 Climbing Cleveland Center
Sun 11:07:04 PM 40.0703 -78.4561 310° West 197 227 22,500 1,100 Climbing Cleveland Center
Sun 11:08:04 PM 40.1003 -78.5039 309° West 192 221 23,500 900 Climbing Cleveland Center
Sun 11:09:04 PM 40.1367 -78.5572 312° West 192 221 24,300 800 Climbing Cleveland Center
Sun 11:10:04 PM 40.1711 -78.6133 309° West 192 221 25,100 750 Climbing Cleveland Center
Sun 11:11:04 PM 40.2075 -78.6692 310° West 197 227 25,800 450 Climbing Cleveland Center
Sun 11:12:04 PM 40.2481 -78.7306 311° West 204 235 26,000 100 Climbing Cleveland Center
Sun 11:13:04 PM 40.2931 -78.8003 310° West 226 260 26,000  Level Cleveland Center
Sun 11:14:04 PM 40.3358 -78.8725 308° West 244 281 26,000  Level Cleveland Center
Sun 11:15:04 PM 40.3764 -78.9425 307° West 244 281 26,000  Level Cleveland Center
Sun 11:16:04 PM 40.4169 -79.0150 306° West 244 281 26,000  Level Cleveland Center
Sun 11:17:04 PM 40.4556 -79.0850 306° West 244 281 26,000  Level Cleveland Center
Sun 11:18:04 PM 40.4981 -79.1550 309° West 244 281 26,000  Level Cleveland Center
Sun 11:19:04 PM 40.5364 -79.2281 305° West 244 281 26,000  Level Cleveland Center
Sun 11:20:04 PM 40.5769 -79.2983 307° West 244 281 26,000  Level Cleveland Center
Sun 11:21:04 PM 40.6153 -79.3606 309° West 244 281 26,000  Level Cleveland Center
Sun 11:22:04 PM 40.6556 -79.4336 306° West 244 281 26,000  Level Cleveland Center
Sun 11:23:04 PM 40.6958 -79.5042 307° West 244 281 26,000  Level Cleveland Center
Sun 11:24:04 PM 40.7361 -79.5775 306° West 244 281 26,000  Level Cleveland Center
Sun 11:25:04 PM 40.7700 -79.6508 301° West 244 281 26,000  Level Cleveland Center
Sun 11:26:04 PM 40.7978 -79.7275 296° West 232 267 26,000  Level Cleveland Center
Sun 11:27:04 PM 40.8275 -79.8039 297° West 227 261 26,000  Level Cleveland Center
Sun 11:28:04 PM 40.8572 -79.8775 298° West 227 261 26,000  Level Cleveland Center
Sun 11:29:04 PM 40.8847 -79.9542 295° West 227 261 26,000  Level Cleveland Center
Sun 11:30:04 PM 40.9122 -80.0308 295° West 233 268 26,000  Level Cleveland Center
Sun 11:31:04 PM 40.9417 -80.1075 297° West 233 268 26,000  Level Cleveland Center
Sun 11:32:04 PM 40.9711 -80.1844 297° West 238 274 26,000  Level Cleveland Center
Sun 11:33:04 PM 40.9986 -80.2611 295° West 238 274 26,000  Level Cleveland Center
Sun 11:34:04 PM 41.0322 -80.3464 298° West 238 274 26,000  Level Cleveland Center
Sun 11:35:04 PM 41.0614 -80.4233 297° West 238 274 26,000  Level Cleveland Center
Sun 11:36:04 PM 41.0886 -80.5006 295° West 238 274 26,000  Level Cleveland Center
Sun 11:37:04 PM 41.1178 -80.5775 297° West 238 274 26,000  Level Cleveland Center
Sun 11:38:04 PM 41.1450 -80.6547 295° West 238 274 26,000  Level Cleveland Center
Sun 11:39:04 PM 41.1719 -80.7319 295° West 238 274 26,000  Level Cleveland Center
Sun 11:40:04 PM 41.2008 -80.8122 296° West 238 274 26,000  Level Cleveland Center
Sun 11:41:04 PM 41.2278 -80.8869 296° West 238 274 26,000  Level Cleveland Center
Sun 11:42:04 PM 41.2547 -80.9642 295° West 238 274 26,000  Level Cleveland Center
Sun 11:43:04 PM 41.2836 -81.0417 296° West 238 274 26,000  Level Cleveland Center
Sun 11:44:04 PM 41.3144 -81.1222 297° West 238 274 26,000  Level Cleveland Center
Sun 11:45:04 PM 41.3433 -81.2056 295° West 238 274 26,000  Level Cleveland Center
Sun 11:46:04 PM 41.3742 -81.2886 296° West 244 281 26,000  Level Cleveland Center
Sun 11:47:04 PM 41.4047 -81.3750 295° West 251 289 26,000 -400 Level Cleveland Center
Sun 11:48:04 PM 41.4356 -81.4556 297° West 257 296 25,200 -1,000 Descending Cleveland Center
Sun 11:49:04 PM 41.4722 -81.5586 295° West 274 315 24,000 -700 Descending Cleveland Center
Sun 11:50:04 PM 41.4986 -81.6394 294° West 273 314 23,800 -900 Descending Cleveland Center
Sun 11:51:04 PM 41.5311 -81.7286 296° West 273 314 22,200 -1,650 Descending Cleveland Center
Sun 11:52:04 PM 41.5656 -81.8208 297° West 273 314 20,500 -1,700 Descending Cleveland Center
Sun 11:53:04 PM 41.5958 -81.9131 294° West 273 314 18,800 -1,650 Descending Cleveland Center
Sun 11:54:04 PM 41.6281 -82.0056 295° West 279 321 17,200 -1,650 Descending Cleveland Center
Sun 11:55:04 PM 41.6603 -82.0950 296° West 279 321 15,500 -1,500 Descending Cleveland Center
Sun 11:56:04 PM 41.6883 -82.1819 293° West 274 315 14,200 -1,250 Descending Cleveland Center
Sun 11:57:04 PM 41.7183 -82.2689 295° West 268 308 13,000 -1,267 Descending Cleveland Center
Sun 11:57:34 PM 41.7383 -82.3194 298° West 255 293 12,300 -1,300 Descending Cleveland Center
Sun 11:58:04 PM 41.7483 -82.3533 292° West 261 300 11,700 -1,200 Descending Cleveland Center
Sun 11:59:04 PM 41.7803 -82.4406 296° West 256 295 10,500 -1,200 Descending Cleveland Center
Mon 12:00:04 AM 41.8100 -82.5278 295° West 256 295 9,300 -738 Descending Cleveland Center
Mon 12:01:06 AM 41.8419 -82.6178 295° West 241 277 9,000 -150 Descending Cleveland Center
Mon 12:02:04 AM 41.8847 -82.6667 320° Northwest 241 277 9,000  Level Cleveland Center
Mon 12:03:04 AM 41.9361 -82.7131 326° Northwest 223 257 9,000 -50 Level Cleveland Center
Mon 12:04:04 AM 41.9872 -82.7594 326° Northwest 223 257 8,900  Descending Cleveland Center
Mon 12:05:04 AM 42.0383 -82.8114 323° Northwest 223 257 9,000 50 Climbing Cleveland Center
Mon 12:06:04 AM 42.0914 -82.8636 324° Northwest 223 257 9,000  Level Cleveland Center
Mon 12:07:04 AM 42.1428 -82.9131 325° Northwest 223 257 9,000  Level Cleveland Center
Mon 12:08:29 AM 42.2203 -82.9861 325° Northwest 228 262 9,000  Level Cleveland Center
Mon 12:09:29 AM 42.2714 -83.0386 323° Northwest 228 262 9,000 -99 Level Cleveland Center
Mon 12:10:30 AM 42.3286 -83.0942 324° Northwest 229 264 8,800 -295 Descending Cleveland Center
Mon 12:11:31 AM 42.3775 -83.1383 326° Northwest 212 244 8,400 -522 Descending Cleveland Center
Mon 12:12:25 AM 42.4164 -83.1792 322° Northwest 198 228 7,800 -783 Descending Cleveland Center
Mon 12:13:26 AM 42.4608 -83.2317 319° Northwest 201 231 6,900 -893 Descending Cleveland Center
Mon 12:14:26 AM 42.4931 -83.2892 307° West 203 234 6,000 -756 Descending Cleveland Center
Mon 12:15:33 AM 42.5228 -83.3525 303° West 175 201 5,300 -750 Descending Cleveland Center
Mon 12:16:34 AM 42.5422 -83.4097 295° West 151 174 4,400 -893 Descending Cleveland Center
Mon 12:17:34 AM 42.5597 -83.4614 295° West 147 169 3,500 -783 Descending Cleveland Center
Mon 12:18:29 AM 42.5883 -83.4881 326° Northwest 113 130 2,900 -496 Descending Cleveland Center
Mon 12:19:35 AM 42.6192 -83.4950 351° North 108 124 2,500 -364 Descending Cleveland Center

Login

Don't have an account? Register now (free) for customized features, flight alerts, and more!